sensor_id;sensor_type;location;lat;lon;timestamp;P1;durP1;ratioP1;P2;durP2;ratioP2
53145;SDS011;39042;53.150;5.898;2024-01-27T00:01:42;23.55;;;3.33;;
53145;SDS011;39042;53.150;5.898;2024-01-27T00:04:09;25.95;;;3.67;;
53145;SDS011;39042;53.150;5.898;2024-01-27T00:06:35;22.77;;;2.78;;
53145;SDS011;39042;53.150;5.898;2024-01-27T00:09:00;23.40;;;3.20;;
53145;SDS011;39042;53.150;5.898;2024-01-27T00:11:26;21.87;;;3.70;;
53145;SDS011;39042;53.150;5.898;2024-01-27T00:13:52;23.83;;;4.23;;
53145;SDS011;39042;53.150;5.898;2024-01-27T00:16:18;28.67;;;2.83;;
53145;SDS011;39042;53.150;5.898;2024-01-27T00:18:44;25.27;;;2.40;;
53145;SDS011;39042;53.150;5.898;2024-01-27T00:21:11;26.52;;;2.50;;
53145;SDS011;39042;53.150;5.898;2024-01-27T00:23:37;21.65;;;2.60;;
53145;SDS011;39042;53.150;5.898;2024-01-27T00:26:03;24.92;;;2.80;;
53145;SDS011;39042;53.150;5.898;2024-01-27T00:28:29;22.55;;;2.58;;
53145;SDS011;39042;53.150;5.898;2024-01-27T00:30:55;21.38;;;2.42;;
53145;SDS011;39042;53.150;5.898;2024-01-27T00:33:21;18.25;;;2.13;;
53145;SDS011;39042;53.150;5.898;2024-01-27T00:35:47;18.73;;;2.55;;
53145;SDS011;39042;53.150;5.898;2024-01-27T00:38:14;12.98;;;1.52;;
53145;SDS011;39042;53.150;5.898;2024-01-27T00:40:40;26.58;;;3.38;;
53145;SDS011;39042;53.150;5.898;2024-01-27T00:43:06;17.25;;;2.28;;
53145;SDS011;39042;53.150;5.898;2024-01-27T00:45:32;25.65;;;2.72;;
53145;SDS011;39042;53.150;5.898;2024-01-27T00:47:58;32.08;;;2.97;;
53145;SDS011;39042;53.150;5.898;2024-01-27T00:50:24;19.95;;;2.65;;
53145;SDS011;39042;53.150;5.898;2024-01-27T00:52:50;32.40;;;3.60;;
53145;SDS011;39042;53.150;5.898;2024-01-27T00:55:16;17.58;;;2.17;;
53145;SDS011;39042;53.150;5.898;2024-01-27T00:57:44;22.92;;;1.95;;
53145;SDS011;39042;53.150;5.898;2024-01-27T01:00:10;26.50;;;3.10;;
53145;SDS011;39042;53.150;5.898;2024-01-27T01:02:37;22.13;;;3.13;;
53145;SDS011;39042;53.150;5.898;2024-01-27T01:05:03;24.52;;;3.20;;
53145;SDS011;39042;53.150;5.898;2024-01-27T01:07:30;18.08;;;2.30;;
53145;SDS011;39042;53.150;5.898;2024-01-27T01:09:56;21.52;;;2.60;;
53145;SDS011;39042;53.150;5.898;2024-01-27T01:12:22;20.30;;;2.30;;
53145;SDS011;39042;53.150;5.898;2024-01-27T01:14:48;17.08;;;1.98;;
53145;SDS011;39042;53.150;5.898;2024-01-27T01:17:14;15.77;;;2.03;;
53145;SDS011;39042;53.150;5.898;2024-01-27T01:19:40;20.03;;;2.63;;
53145;SDS011;39042;53.150;5.898;2024-01-27T01:22:07;22.38;;;2.58;;
53145;SDS011;39042;53.150;5.898;2024-01-27T01:24:33;17.20;;;2.05;;
53145;SDS011;39042;53.150;5.898;2024-01-27T01:26:59;27.05;;;3.28;;
53145;SDS011;39042;53.150;5.898;2024-01-27T01:29:25;22.83;;;2.92;;
53145;SDS011;39042;53.150;5.898;2024-01-27T01:31:51;22.13;;;2.75;;
53145;SDS011;39042;53.150;5.898;2024-01-27T01:34:17;19.05;;;2.13;;
53145;SDS011;39042;53.150;5.898;2024-01-27T01:36:43;16.88;;;2.00;;
53145;SDS011;39042;53.150;5.898;2024-01-27T01:39:10;17.38;;;1.95;;
53145;SDS011;39042;53.150;5.898;2024-01-27T01:41:36;17.17;;;1.77;;
53145;SDS011;39042;53.150;5.898;2024-01-27T01:44:02;16.98;;;2.38;;
53145;SDS011;39042;53.150;5.898;2024-01-27T01:46:28;20.07;;;2.33;;
53145;SDS011;39042;53.150;5.898;2024-01-27T01:48:54;25.55;;;2.42;;
53145;SDS011;39042;53.150;5.898;2024-01-27T01:51:20;20.45;;;2.17;;
53145;SDS011;39042;53.150;5.898;2024-01-27T01:53:47;27.90;;;2.97;;
53145;SDS011;39042;53.150;5.898;2024-01-27T01:58:40;18.42;;;2.80;;
53145;SDS011;39042;53.150;5.898;2024-01-27T02:01:06;24.08;;;2.50;;
53145;SDS011;39042;53.150;5.898;2024-01-27T02:03:32;26.05;;;2.65;;
53145;SDS011;39042;53.150;5.898;2024-01-27T02:05:58;22.27;;;2.63;;
53145;SDS011;39042;53.150;5.898;2024-01-27T02:08:24;26.83;;;2.50;;
53145;SDS011;39042;53.150;5.898;2024-01-27T02:10:50;18.20;;;2.87;;
53145;SDS011;39042;53.150;5.898;2024-01-27T02:13:16;19.77;;;2.40;;
53145;SDS011;39042;53.150;5.898;2024-01-27T02:15:46;17.35;;;1.73;;
53145;SDS011;39042;53.150;5.898;2024-01-27T02:18:14;16.25;;;1.98;;
53145;SDS011;39042;53.150;5.898;2024-01-27T02:20:40;16.95;;;2.50;;
53145;SDS011;39042;53.150;5.898;2024-01-27T02:25:33;16.83;;;2.30;;
53145;SDS011;39042;53.150;5.898;2024-01-27T02:28:00;21.15;;;3.05;;
53145;SDS011;39042;53.150;5.898;2024-01-27T02:30:28;22.20;;;2.17;;
53145;SDS011;39042;53.150;5.898;2024-01-27T02:32:57;25.15;;;2.42;;
53145;SDS011;39042;53.150;5.898;2024-01-27T02:35:23;23.33;;;2.72;;
53145;SDS011;39042;53.150;5.898;2024-01-27T02:37:50;19.00;;;2.17;;
53145;SDS011;39042;53.150;5.898;2024-01-27T02:40:16;31.07;;;3.53;;
53145;SDS011;39042;53.150;5.898;2024-01-27T02:42:42;15.95;;;1.70;;
53145;SDS011;39042;53.150;5.898;2024-01-27T02:47:35;19.75;;;2.15;;
53145;SDS011;39042;53.150;5.898;2024-01-27T02:50:00;25.97;;;2.20;;
53145;SDS011;39042;53.150;5.898;2024-01-27T02:52:26;28.80;;;3.13;;
53145;SDS011;39042;53.150;5.898;2024-01-27T02:54:53;19.38;;;2.13;;
53145;SDS011;39042;53.150;5.898;2024-01-27T02:57:19;19.90;;;2.67;;
53145;SDS011;39042;53.150;5.898;2024-01-27T02:59:47;15.93;;;2.45;;
53145;SDS011;39042;53.150;5.898;2024-01-27T03:02:13;18.77;;;2.10;;
53145;SDS011;39042;53.150;5.898;2024-01-27T03:04:38;21.57;;;2.83;;
53145;SDS011;39042;53.150;5.898;2024-01-27T03:07:04;19.20;;;2.40;;
53145;SDS011;39042;53.150;5.898;2024-01-27T03:09:30;16.17;;;1.83;;
53145;SDS011;39042;53.150;5.898;2024-01-27T03:11:57;18.52;;;1.92;;
53145;SDS011;39042;53.150;5.898;2024-01-27T03:14:23;21.63;;;2.25;;
53145;SDS011;39042;53.150;5.898;2024-01-27T03:16:49;21.42;;;1.83;;
53145;SDS011;39042;53.150;5.898;2024-01-27T03:19:15;20.90;;;2.10;;
53145;SDS011;39042;53.150;5.898;2024-01-27T03:21:41;17.10;;;1.93;;
53145;SDS011;39042;53.150;5.898;2024-01-27T03:24:06;14.23;;;1.93;;
53145;SDS011;39042;53.150;5.898;2024-01-27T03:26:32;22.60;;;2.40;;
53145;SDS011;39042;53.150;5.898;2024-01-27T03:28:58;21.55;;;1.77;;
53145;SDS011;39042;53.150;5.898;2024-01-27T03:31:31;23.38;;;2.47;;
53145;SDS011;39042;53.150;5.898;2024-01-27T03:34:00;15.40;;;1.90;;
53145;SDS011;39042;53.150;5.898;2024-01-27T03:36:27;20.63;;;2.72;;
53145;SDS011;39042;53.150;5.898;2024-01-27T03:38:53;17.90;;;1.77;;
53145;SDS011;39042;53.150;5.898;2024-01-27T03:41:21;24.02;;;2.03;;
53145;SDS011;39042;53.150;5.898;2024-01-27T03:43:46;23.47;;;2.30;;
53145;SDS011;39042;53.150;5.898;2024-01-27T03:46:12;19.60;;;2.10;;
53145;SDS011;39042;53.150;5.898;2024-01-27T03:48:38;19.47;;;2.97;;
53145;SDS011;39042;53.150;5.898;2024-01-27T03:51:04;21.23;;;2.90;;
53145;SDS011;39042;53.150;5.898;2024-01-27T03:53:30;16.95;;;2.13;;
53145;SDS011;39042;53.150;5.898;2024-01-27T03:55:57;17.25;;;1.77;;
53145;SDS011;39042;53.150;5.898;2024-01-27T03:58:24;16.23;;;2.50;;
53145;SDS011;39042;53.150;5.898;2024-01-27T04:00:51;26.27;;;3.30;;
53145;SDS011;39042;53.150;5.898;2024-01-27T04:03:17;15.23;;;2.20;;
53145;SDS011;39042;53.150;5.898;2024-01-27T04:05:43;21.60;;;2.15;;
53145;SDS011;39042;53.150;5.898;2024-01-27T04:08:09;17.60;;;2.13;;
53145;SDS011;39042;53.150;5.898;2024-01-27T04:10:36;24.37;;;2.70;;
53145;SDS011;39042;53.150;5.898;2024-01-27T04:13:02;23.50;;;2.45;;
53145;SDS011;39042;53.150;5.898;2024-01-27T04:15:28;27.03;;;4.00;;
53145;SDS011;39042;53.150;5.898;2024-01-27T04:17:54;13.15;;;1.92;;
53145;SDS011;39042;53.150;5.898;2024-01-27T04:20:20;17.13;;;2.17;;
53145;SDS011;39042;53.150;5.898;2024-01-27T04:22:46;23.33;;;3.30;;
53145;SDS011;39042;53.150;5.898;2024-01-27T04:25:12;21.97;;;1.77;;
53145;SDS011;39042;53.150;5.898;2024-01-27T04:27:38;15.10;;;1.73;;
53145;SDS011;39042;53.150;5.898;2024-01-27T04:30:05;21.40;;;2.35;;
53145;SDS011;39042;53.150;5.898;2024-01-27T04:32:32;20.17;;;2.00;;
53145;SDS011;39042;53.150;5.898;2024-01-27T04:34:58;20.47;;;1.90;;
53145;SDS011;39042;53.150;5.898;2024-01-27T04:37:24;21.95;;;2.42;;
53145;SDS011;39042;53.150;5.898;2024-01-27T04:39:49;21.60;;;2.33;;
53145;SDS011;39042;53.150;5.898;2024-01-27T04:42:16;25.48;;;2.95;;
53145;SDS011;39042;53.150;5.898;2024-01-27T04:44:42;21.13;;;2.40;;
53145;SDS011;39042;53.150;5.898;2024-01-27T04:47:07;20.50;;;2.00;;
53145;SDS011;39042;53.150;5.898;2024-01-27T04:49:33;28.80;;;2.75;;
53145;SDS011;39042;53.150;5.898;2024-01-27T04:51:59;20.87;;;3.27;;
53145;SDS011;39042;53.150;5.898;2024-01-27T04:54:25;12.67;;;1.50;;
53145;SDS011;39042;53.150;5.898;2024-01-27T04:56:51;22.67;;;2.45;;
53145;SDS011;39042;53.150;5.898;2024-01-27T04:59:17;21.00;;;1.90;;
53145;SDS011;39042;53.150;5.898;2024-01-27T05:01:46;30.50;;;2.87;;
53145;SDS011;39042;53.150;5.898;2024-01-27T05:04:12;22.75;;;2.05;;
53145;SDS011;39042;53.150;5.898;2024-01-27T05:06:38;20.80;;;2.05;;
53145;SDS011;39042;53.150;5.898;2024-01-27T05:09:09;20.00;;;2.35;;
53145;SDS011;39042;53.150;5.898;2024-01-27T05:11:35;22.70;;;2.38;;
53145;SDS011;39042;53.150;5.898;2024-01-27T05:14:01;15.73;;;1.93;;
53145;SDS011;39042;53.150;5.898;2024-01-27T05:16:30;26.85;;;2.55;;
53145;SDS011;39042;53.150;5.898;2024-01-27T05:18:57;22.63;;;2.47;;
53145;SDS011;39042;53.150;5.898;2024-01-27T05:21:23;11.75;;;1.90;;
53145;SDS011;39042;53.150;5.898;2024-01-27T05:23:48;21.27;;;1.63;;
53145;SDS011;39042;53.150;5.898;2024-01-27T05:26:14;25.83;;;2.67;;
53145;SDS011;39042;53.150;5.898;2024-01-27T05:28:40;15.70;;;1.90;;
53145;SDS011;39042;53.150;5.898;2024-01-27T05:31:06;16.17;;;2.93;;
53145;SDS011;39042;53.150;5.898;2024-01-27T05:33:33;22.52;;;2.55;;
53145;SDS011;39042;53.150;5.898;2024-01-27T05:35:59;25.75;;;2.67;;
53145;SDS011;39042;53.150;5.898;2024-01-27T05:38:25;15.23;;;1.27;;
53145;SDS011;39042;53.150;5.898;2024-01-27T05:40:51;11.37;;;1.13;;
53145;SDS011;39042;53.150;5.898;2024-01-27T05:43:17;20.95;;;2.30;;
53145;SDS011;39042;53.150;5.898;2024-01-27T05:45:43;23.40;;;2.08;;
53145;SDS011;39042;53.150;5.898;2024-01-27T05:48:10;24.65;;;2.38;;
53145;SDS011;39042;53.150;5.898;2024-01-27T05:50:36;23.23;;;2.25;;
53145;SDS011;39042;53.150;5.898;2024-01-27T05:53:02;23.40;;;2.60;;
53145;SDS011;39042;53.150;5.898;2024-01-27T05:55:28;31.90;;;3.00;;
53145;SDS011;39042;53.150;5.898;2024-01-27T05:57:54;21.70;;;2.50;;
53145;SDS011;39042;53.150;5.898;2024-01-27T06:00:22;22.05;;;2.08;;
53145;SDS011;39042;53.150;5.898;2024-01-27T06:02:47;20.47;;;2.33;;
53145;SDS011;39042;53.150;5.898;2024-01-27T06:05:14;17.00;;;2.10;;
53145;SDS011;39042;53.150;5.898;2024-01-27T06:07:40;28.67;;;2.83;;
53145;SDS011;39042;53.150;5.898;2024-01-27T06:10:09;14.30;;;1.75;;
53145;SDS011;39042;53.150;5.898;2024-01-27T06:12:35;19.00;;;1.92;;
53145;SDS011;39042;53.150;5.898;2024-01-27T06:15:02;22.15;;;2.80;;
53145;SDS011;39042;53.150;5.898;2024-01-27T06:17:29;20.60;;;2.80;;
53145;SDS011;39042;53.150;5.898;2024-01-27T06:19:55;16.17;;;1.90;;
53145;SDS011;39042;53.150;5.898;2024-01-27T06:22:20;18.00;;;2.77;;
53145;SDS011;39042;53.150;5.898;2024-01-27T06:24:46;17.90;;;1.80;;
53145;SDS011;39042;53.150;5.898;2024-01-27T06:27:12;21.93;;;2.07;;
53145;SDS011;39042;53.150;5.898;2024-01-27T06:29:38;17.43;;;2.03;;
53145;SDS011;39042;53.150;5.898;2024-01-27T06:32:05;17.38;;;2.22;;
53145;SDS011;39042;53.150;5.898;2024-01-27T06:34:31;24.20;;;2.23;;
53145;SDS011;39042;53.150;5.898;2024-01-27T06:36:58;23.83;;;2.80;;
53145;SDS011;39042;53.150;5.898;2024-01-27T06:39:24;18.65;;;1.90;;
53145;SDS011;39042;53.150;5.898;2024-01-27T06:41:50;21.17;;;2.20;;
53145;SDS011;39042;53.150;5.898;2024-01-27T06:44:16;21.63;;;3.33;;
53145;SDS011;39042;53.150;5.898;2024-01-27T06:46:42;23.03;;;2.73;;
53145;SDS011;39042;53.150;5.898;2024-01-27T06:49:10;24.60;;;2.70;;
53145;SDS011;39042;53.150;5.898;2024-01-27T06:51:35;22.73;;;2.60;;
53145;SDS011;39042;53.150;5.898;2024-01-27T06:54:01;20.57;;;3.17;;
53145;SDS011;39042;53.150;5.898;2024-01-27T06:56:27;24.67;;;2.90;;
53145;SDS011;39042;53.150;5.898;2024-01-27T06:58:53;23.90;;;3.20;;
53145;SDS011;39042;53.150;5.898;2024-01-27T07:01:19;27.07;;;3.23;;
53145;SDS011;39042;53.150;5.898;2024-01-27T07:03:45;20.17;;;3.93;;
53145;SDS011;39042;53.150;5.898;2024-01-27T07:06:10;21.87;;;3.90;;
53145;SDS011;39042;53.150;5.898;2024-01-27T07:08:36;17.87;;;2.07;;
53145;SDS011;39042;53.150;5.898;2024-01-27T07:11:02;19.83;;;3.47;;
53145;SDS011;39042;53.150;5.898;2024-01-27T07:13:28;37.35;;;4.72;;
53145;SDS011;39042;53.150;5.898;2024-01-27T07:18:21;24.15;;;3.03;;
53145;SDS011;39042;53.150;5.898;2024-01-27T07:20:47;21.48;;;6.00;;
53145;SDS011;39042;53.150;5.898;2024-01-27T07:23:13;25.53;;;3.03;;
53145;SDS011;39042;53.150;5.898;2024-01-27T07:25:39;26.70;;;4.37;;
53145;SDS011;39042;53.150;5.898;2024-01-27T07:28:05;26.70;;;3.60;;
53145;SDS011;39042;53.150;5.898;2024-01-27T07:30:30;25.37;;;4.37;;
53145;SDS011;39042;53.150;5.898;2024-01-27T07:32:56;23.23;;;3.30;;
53145;SDS011;39042;53.150;5.898;2024-01-27T07:35:22;23.95;;;2.42;;
53145;SDS011;39042;53.150;5.898;2024-01-27T07:37:48;21.50;;;3.03;;
53145;SDS011;39042;53.150;5.898;2024-01-27T07:40:14;17.40;;;2.17;;
53145;SDS011;39042;53.150;5.898;2024-01-27T07:42:40;31.15;;;5.32;;
53145;SDS011;39042;53.150;5.898;2024-01-27T07:45:06;20.88;;;3.15;;
53145;SDS011;39042;53.150;5.898;2024-01-27T07:47:34;18.48;;;2.95;;
53145;SDS011;39042;53.150;5.898;2024-01-27T07:50:00;21.10;;;2.55;;
53145;SDS011;39042;53.150;5.898;2024-01-27T07:52:26;12.47;;;2.10;;
53145;SDS011;39042;53.150;5.898;2024-01-27T07:54:51;16.83;;;2.63;;
53145;SDS011;39042;53.150;5.898;2024-01-27T07:57:20;22.25;;;2.92;;
53145;SDS011;39042;53.150;5.898;2024-01-27T07:59:46;30.23;;;3.03;;
53145;SDS011;39042;53.150;5.898;2024-01-27T08:02:12;24.27;;;3.40;;
53145;SDS011;39042;53.150;5.898;2024-01-27T08:04:38;16.80;;;2.37;;
53145;SDS011;39042;53.150;5.898;2024-01-27T08:07:04;21.60;;;2.10;;
53145;SDS011;39042;53.150;5.898;2024-01-27T08:09:35;25.02;;;4.15;;
53145;SDS011;39042;53.150;5.898;2024-01-27T08:12:03;22.85;;;3.67;;
53145;SDS011;39042;53.150;5.898;2024-01-27T08:14:29;28.67;;;3.47;;
53145;SDS011;39042;53.150;5.898;2024-01-27T08:16:59;19.55;;;2.50;;
53145;SDS011;39042;53.150;5.898;2024-01-27T08:19:25;21.08;;;2.63;;
53145;SDS011;39042;53.150;5.898;2024-01-27T08:21:51;32.08;;;4.55;;
53145;SDS011;39042;53.150;5.898;2024-01-27T08:24:17;28.13;;;3.57;;
53145;SDS011;39042;53.150;5.898;2024-01-27T08:26:43;32.60;;;3.17;;
53145;SDS011;39042;53.150;5.898;2024-01-27T08:29:10;17.67;;;3.03;;
53145;SDS011;39042;53.150;5.898;2024-01-27T08:31:36;18.70;;;2.33;;
53145;SDS011;39042;53.150;5.898;2024-01-27T08:34:03;22.70;;;3.42;;
53145;SDS011;39042;53.150;5.898;2024-01-27T08:36:30;27.10;;;3.55;;
53145;SDS011;39042;53.150;5.898;2024-01-27T08:38:55;30.80;;;4.23;;
53145;SDS011;39042;53.150;5.898;2024-01-27T08:41:22;33.83;;;5.00;;
53145;SDS011;39042;53.150;5.898;2024-01-27T08:43:47;20.42;;;2.70;;
53145;SDS011;39042;53.150;5.898;2024-01-27T08:46:13;22.10;;;3.50;;
53145;SDS011;39042;53.150;5.898;2024-01-27T08:48:40;30.73;;;5.18;;
53145;SDS011;39042;53.150;5.898;2024-01-27T08:51:09;28.40;;;5.37;;
53145;SDS011;39042;53.150;5.898;2024-01-27T08:53:37;25.98;;;5.00;;
53145;SDS011;39042;53.150;5.898;2024-01-27T08:56:02;35.77;;;5.13;;
53145;SDS011;39042;53.150;5.898;2024-01-27T08:58:28;23.10;;;3.72;;
53145;SDS011;39042;53.150;5.898;2024-01-27T09:00:54;27.10;;;4.07;;
53145;SDS011;39042;53.150;5.898;2024-01-27T09:03:20;21.97;;;3.70;;
53145;SDS011;39042;53.150;5.898;2024-01-27T09:05:46;29.97;;;4.23;;
53145;SDS011;39042;53.150;5.898;2024-01-27T09:08:12;31.98;;;4.97;;
53145;SDS011;39042;53.150;5.898;2024-01-27T09:10:38;28.10;;;4.17;;
53145;SDS011;39042;53.150;5.898;2024-01-27T09:13:04;27.23;;;4.10;;
53145;SDS011;39042;53.150;5.898;2024-01-27T09:15:30;26.52;;;4.50;;
53145;SDS011;39042;53.150;5.898;2024-01-27T09:17:56;24.10;;;3.97;;
53145;SDS011;39042;53.150;5.898;2024-01-27T09:20:22;22.70;;;4.30;;
53145;SDS011;39042;53.150;5.898;2024-01-27T09:22:48;23.77;;;2.88;;
53145;SDS011;39042;53.150;5.898;2024-01-27T09:25:16;25.85;;;4.38;;
53145;SDS011;39042;53.150;5.898;2024-01-27T09:27:42;36.15;;;5.05;;
53145;SDS011;39042;53.150;5.898;2024-01-27T09:30:08;20.43;;;3.30;;
53145;SDS011;39042;53.150;5.898;2024-01-27T09:32:34;28.63;;;5.05;;
53145;SDS011;39042;53.150;5.898;2024-01-27T09:35:00;23.00;;;4.53;;
53145;SDS011;39042;53.150;5.898;2024-01-27T09:37:26;22.20;;;4.85;;
53145;SDS011;39042;53.150;5.898;2024-01-27T09:39:52;28.77;;;5.57;;
53145;SDS011;39042;53.150;5.898;2024-01-27T09:42:18;31.13;;;4.50;;
53145;SDS011;39042;53.150;5.898;2024-01-27T09:44:48;23.98;;;4.38;;
53145;SDS011;39042;53.150;5.898;2024-01-27T09:47:14;21.20;;;4.32;;
53145;SDS011;39042;53.150;5.898;2024-01-27T09:52:07;28.83;;;5.25;;
53145;SDS011;39042;53.150;5.898;2024-01-27T09:54:34;17.80;;;3.80;;
53145;SDS011;39042;53.150;5.898;2024-01-27T09:57:01;26.58;;;5.60;;
53145;SDS011;39042;53.150;5.898;2024-01-27T10:01:54;27.15;;;4.40;;
53145;SDS011;39042;53.150;5.898;2024-01-27T10:04:23;25.25;;;4.75;;
53145;SDS011;39042;53.150;5.898;2024-01-27T10:06:50;24.75;;;5.00;;
53145;SDS011;39042;53.150;5.898;2024-01-27T10:09:16;23.85;;;3.35;;
53145;SDS011;39042;53.150;5.898;2024-01-27T10:11:46;32.20;;;4.80;;
53145;SDS011;39042;53.150;5.898;2024-01-27T10:14:15;22.98;;;4.25;;
53145;SDS011;39042;53.150;5.898;2024-01-27T10:16:44;27.07;;;4.43;;
53145;SDS011;39042;53.150;5.898;2024-01-27T10:19:15;21.20;;;4.57;;
53145;SDS011;39042;53.150;5.898;2024-01-27T10:21:46;23.10;;;4.10;;
53145;SDS011;39042;53.150;5.898;2024-01-27T10:24:12;33.33;;;4.85;;
53145;SDS011;39042;53.150;5.898;2024-01-27T10:26:38;25.00;;;5.37;;
53145;SDS011;39042;53.150;5.898;2024-01-27T10:29:04;16.03;;;3.13;;
53145;SDS011;39042;53.150;5.898;2024-01-27T10:31:33;23.27;;;5.00;;
53145;SDS011;39042;53.150;5.898;2024-01-27T10:34:01;22.42;;;4.97;;
53145;SDS011;39042;53.150;5.898;2024-01-27T10:36:42;23.42;;;4.85;;
53145;SDS011;39042;53.150;5.898;2024-01-27T10:39:22;22.13;;;3.97;;
53145;SDS011;39042;53.150;5.898;2024-01-27T10:41:49;24.75;;;4.30;;
53145;SDS011;39042;53.150;5.898;2024-01-27T10:44:17;29.27;;;4.63;;
53145;SDS011;39042;53.150;5.898;2024-01-27T10:46:44;27.08;;;5.20;;
53145;SDS011;39042;53.150;5.898;2024-01-27T10:49:12;29.50;;;6.97;;
53145;SDS011;39042;53.150;5.898;2024-01-27T10:51:48;25.15;;;8.18;;
53145;SDS011;39042;53.150;5.898;2024-01-27T10:54:23;26.98;;;5.53;;
53145;SDS011;39042;53.150;5.898;2024-01-27T10:56:53;30.70;;;7.65;;
53145;SDS011;39042;53.150;5.898;2024-01-27T10:59:24;32.72;;;7.50;;
53145;SDS011;39042;53.150;5.898;2024-01-27T11:01:53;41.58;;;12.15;;
53145;SDS011;39042;53.150;5.898;2024-01-27T11:04:20;36.47;;;9.52;;
53145;SDS011;39042;53.150;5.898;2024-01-27T11:06:49;30.98;;;7.22;;
53145;SDS011;39042;53.150;5.898;2024-01-27T11:09:15;34.47;;;9.95;;
53145;SDS011;39042;53.150;5.898;2024-01-27T11:11:44;36.35;;;9.02;;
53145;SDS011;39042;53.150;5.898;2024-01-27T11:14:11;24.65;;;6.47;;
53145;SDS011;39042;53.150;5.898;2024-01-27T11:16:37;28.02;;;7.35;;
53145;SDS011;39042;53.150;5.898;2024-01-27T11:19:11;26.25;;;6.90;;
53145;SDS011;39042;53.150;5.898;2024-01-27T11:21:37;21.35;;;4.32;;
53145;SDS011;39042;53.150;5.898;2024-01-27T11:24:13;35.55;;;7.57;;
53145;SDS011;39042;53.150;5.898;2024-01-27T11:26:40;21.27;;;4.20;;
53145;SDS011;39042;53.150;5.898;2024-01-27T11:31:35;19.58;;;3.45;;
53145;SDS011;39042;53.150;5.898;2024-01-27T11:34:00;24.50;;;4.80;;
53145;SDS011;39042;53.150;5.898;2024-01-27T11:36:26;28.17;;;3.67;;
53145;SDS011;39042;53.150;5.898;2024-01-27T11:38:53;30.85;;;5.65;;
53145;SDS011;39042;53.150;5.898;2024-01-27T11:41:28;20.08;;;3.65;;
53145;SDS011;39042;53.150;5.898;2024-01-27T11:43:55;24.75;;;4.55;;
53145;SDS011;39042;53.150;5.898;2024-01-27T11:46:23;26.02;;;5.30;;
53145;SDS011;39042;53.150;5.898;2024-01-27T11:48:49;21.73;;;6.35;;
53145;SDS011;39042;53.150;5.898;2024-01-27T11:51:15;26.77;;;4.82;;
53145;SDS011;39042;53.150;5.898;2024-01-27T11:53:41;24.50;;;4.25;;
53145;SDS011;39042;53.150;5.898;2024-01-27T11:56:07;26.63;;;5.20;;
53145;SDS011;39042;53.150;5.898;2024-01-27T11:58:33;27.10;;;5.23;;
53145;SDS011;39042;53.150;5.898;2024-01-27T12:00:59;22.45;;;4.40;;
53145;SDS011;39042;53.150;5.898;2024-01-27T12:03:26;31.63;;;4.50;;
53145;SDS011;39042;53.150;5.898;2024-01-27T12:05:52;22.30;;;3.92;;
53145;SDS011;39042;53.150;5.898;2024-01-27T12:08:18;38.47;;;11.40;;
53145;SDS011;39042;53.150;5.898;2024-01-27T12:10:44;30.47;;;7.90;;
53145;SDS011;39042;53.150;5.898;2024-01-27T12:13:10;27.27;;;7.10;;
53145;SDS011;39042;53.150;5.898;2024-01-27T12:15:36;34.17;;;7.65;;
53145;SDS011;39042;53.150;5.898;2024-01-27T12:18:04;35.22;;;6.55;;
53145;SDS011;39042;53.150;5.898;2024-01-27T12:20:30;24.42;;;4.75;;
53145;SDS011;39042;53.150;5.898;2024-01-27T12:23:03;19.23;;;4.00;;
53145;SDS011;39042;53.150;5.898;2024-01-27T12:25:29;18.63;;;5.40;;
53145;SDS011;39042;53.150;5.898;2024-01-27T12:27:55;24.45;;;4.95;;
53145;SDS011;39042;53.150;5.898;2024-01-27T12:30:26;19.67;;;4.00;;
53145;SDS011;39042;53.150;5.898;2024-01-27T12:32:52;16.33;;;5.00;;
53145;SDS011;39042;53.150;5.898;2024-01-27T12:35:18;25.55;;;3.58;;
53145;SDS011;39042;53.150;5.898;2024-01-27T12:37:44;23.57;;;5.27;;
53145;SDS011;39042;53.150;5.898;2024-01-27T12:40:22;15.63;;;2.83;;
53145;SDS011;39042;53.150;5.898;2024-01-27T12:42:48;24.10;;;4.05;;
53145;SDS011;39042;53.150;5.898;2024-01-27T12:45:14;19.45;;;3.58;;
53145;SDS011;39042;53.150;5.898;2024-01-27T12:47:40;20.25;;;4.03;;
53145;SDS011;39042;53.150;5.898;2024-01-27T12:50:07;23.42;;;3.97;;
53145;SDS011;39042;53.150;5.898;2024-01-27T12:52:33;22.80;;;3.55;;
53145;SDS011;39042;53.150;5.898;2024-01-27T12:55:00;19.42;;;2.95;;
53145;SDS011;39042;53.150;5.898;2024-01-27T12:57:26;17.27;;;2.37;;
53145;SDS011;39042;53.150;5.898;2024-01-27T12:59:52;13.35;;;2.55;;
53145;SDS011;39042;53.150;5.898;2024-01-27T13:02:18;17.27;;;2.70;;
53145;SDS011;39042;53.150;5.898;2024-01-27T13:04:44;23.02;;;3.53;;
53145;SDS011;39042;53.150;5.898;2024-01-27T13:07:10;20.43;;;3.00;;
53145;SDS011;39042;53.150;5.898;2024-01-27T13:09:35;21.50;;;3.63;;
53145;SDS011;39042;53.150;5.898;2024-01-27T13:12:02;20.20;;;3.20;;
53145;SDS011;39042;53.150;5.898;2024-01-27T13:14:28;24.35;;;4.70;;
53145;SDS011;39042;53.150;5.898;2024-01-27T13:16:54;18.10;;;3.30;;
53145;SDS011;39042;53.150;5.898;2024-01-27T13:19:21;20.75;;;3.90;;
53145;SDS011;39042;53.150;5.898;2024-01-27T13:21:48;19.40;;;2.47;;
53145;SDS011;39042;53.150;5.898;2024-01-27T13:24:14;15.37;;;3.73;;
53145;SDS011;39042;53.150;5.898;2024-01-27T13:26:39;18.33;;;3.30;;
53145;SDS011;39042;53.150;5.898;2024-01-27T13:29:05;16.00;;;2.33;;
53145;SDS011;39042;53.150;5.898;2024-01-27T13:31:32;17.33;;;2.33;;
53145;SDS011;39042;53.150;5.898;2024-01-27T13:33:58;16.70;;;1.90;;
53145;SDS011;39042;53.150;5.898;2024-01-27T13:36:27;18.03;;;2.67;;
53145;SDS011;39042;53.150;5.898;2024-01-27T13:38:53;11.60;;;1.67;;
53145;SDS011;39042;53.150;5.898;2024-01-27T13:41:19;23.30;;;3.13;;
53145;SDS011;39042;53.150;5.898;2024-01-27T13:43:44;21.20;;;2.70;;
53145;SDS011;39042;53.150;5.898;2024-01-27T13:46:10;14.00;;;1.90;;
53145;SDS011;39042;53.150;5.898;2024-01-27T13:48:36;15.93;;;2.10;;
53145;SDS011;39042;53.150;5.898;2024-01-27T13:51:02;18.05;;;2.88;;
53145;SDS011;39042;53.150;5.898;2024-01-27T13:53:29;19.42;;;3.03;;
53145;SDS011;39042;53.150;5.898;2024-01-27T13:55:55;17.37;;;2.10;;
53145;SDS011;39042;53.150;5.898;2024-01-27T13:58:21;15.60;;;2.20;;
53145;SDS011;39042;53.150;5.898;2024-01-27T14:00:47;15.05;;;2.30;;
53145;SDS011;39042;53.150;5.898;2024-01-27T14:03:13;23.52;;;2.97;;
53145;SDS011;39042;53.150;5.898;2024-01-27T14:05:39;19.97;;;2.57;;
53145;SDS011;39042;53.150;5.898;2024-01-27T14:08:06;15.82;;;3.00;;
53145;SDS011;39042;53.150;5.898;2024-01-27T14:10:33;18.85;;;3.30;;
53145;SDS011;39042;53.150;5.898;2024-01-27T14:13:00;18.63;;;2.38;;
53145;SDS011;39042;53.150;5.898;2024-01-27T14:15:29;26.60;;;2.90;;
53145;SDS011;39042;53.150;5.898;2024-01-27T14:17:55;19.80;;;4.53;;
53145;SDS011;39042;53.150;5.898;2024-01-27T14:20:21;17.67;;;3.33;;
53145;SDS011;39042;53.150;5.898;2024-01-27T14:22:47;24.37;;;3.97;;
53145;SDS011;39042;53.150;5.898;2024-01-27T14:25:13;22.58;;;4.57;;
53145;SDS011;39042;53.150;5.898;2024-01-27T14:27:39;21.52;;;3.60;;
53145;SDS011;39042;53.150;5.898;2024-01-27T14:30:05;19.00;;;4.23;;
53145;SDS011;39042;53.150;5.898;2024-01-27T14:32:32;18.25;;;4.35;;
53145;SDS011;39042;53.150;5.898;2024-01-27T14:34:57;24.40;;;4.80;;
53145;SDS011;39042;53.150;5.898;2024-01-27T14:37:23;22.17;;;4.93;;
53145;SDS011;39042;53.150;5.898;2024-01-27T14:39:49;29.17;;;5.30;;
53145;SDS011;39042;53.150;5.898;2024-01-27T14:42:15;23.97;;;5.30;;
53145;SDS011;39042;53.150;5.898;2024-01-27T14:44:44;23.10;;;4.80;;
53145;SDS011;39042;53.150;5.898;2024-01-27T14:47:14;23.85;;;4.32;;